createdAt,value
2023-04-19T00:01:29.466Z,3.72
2023-04-19T00:04:01.515Z,3.55
2023-04-19T00:06:34.443Z,3.75
2023-04-19T00:09:06.255Z,3.70
2023-04-19T00:11:38.098Z,3.28
2023-04-19T00:14:10.129Z,3.60
2023-04-19T00:16:42.219Z,3.55
2023-04-19T00:19:14.241Z,3.17
2023-04-19T00:21:46.204Z,3.20
2023-04-19T00:24:18.338Z,3.50
2023-04-19T00:26:50.232Z,3.20
2023-04-19T00:29:22.078Z,3.35
2023-04-19T00:31:54.007Z,3.22
2023-04-19T00:34:26.169Z,3.03
2023-04-19T00:37:00.833Z,3.08
2023-04-19T00:39:32.784Z,3.20
2023-04-19T00:42:04.706Z,3.08
2023-04-19T00:44:36.752Z,2.53
2023-04-19T00:47:08.772Z,2.85
2023-04-19T00:49:41.032Z,2.90
2023-04-19T00:52:13.067Z,2.90
2023-04-19T00:54:45.708Z,2.90
2023-04-19T00:57:19.663Z,2.88
2023-04-19T00:59:52.101Z,2.80
2023-04-19T01:02:24.183Z,2.50
2023-04-19T01:04:56.469Z,2.78
2023-04-19T01:07:28.612Z,2.90
2023-04-19T01:10:00.560Z,2.65
2023-04-19T01:12:51.340Z,2.92
2023-04-19T01:15:23.574Z,2.67
2023-04-19T01:17:56.452Z,2.83
2023-04-19T01:20:31.379Z,2.33
2023-04-19T01:23:04.539Z,2.90
2023-04-19T01:25:36.476Z,2.20
2023-04-19T01:28:08.474Z,2.50
2023-04-19T01:30:40.440Z,2.50
2023-04-19T01:33:12.362Z,2.40
2023-04-19T01:35:44.223Z,2.33
2023-04-19T01:38:17.038Z,2.45
2023-04-19T01:40:49.055Z,2.58
2023-04-19T01:43:21.021Z,2.40
2023-04-19T01:45:52.980Z,2.30
2023-04-19T01:48:25.021Z,2.20
2023-04-19T01:50:58.500Z,2.05
2023-04-19T01:53:30.397Z,2.45
2023-04-19T01:56:02.254Z,2.35
2023-04-19T01:58:34.129Z,2.28
2023-04-19T02:01:06.133Z,2.40
2023-04-19T02:03:41.120Z,2.78
2023-04-19T02:06:17.293Z,2.10
2023-04-19T02:08:51.211Z,2.53
2023-04-19T02:11:23.193Z,2.33
2023-04-19T02:13:55.530Z,2.28
2023-04-19T02:16:27.613Z,2.20
2023-04-19T02:18:59.473Z,2.28
2023-04-19T02:21:31.986Z,2.35
2023-04-19T02:24:04.037Z,2.33
2023-04-19T02:26:36.533Z,2.13
2023-04-19T02:29:09.996Z,1.73
2023-04-19T02:31:46.389Z,2.13
2023-04-19T02:34:18.659Z,2.00
2023-04-19T02:36:50.950Z,1.83
2023-04-19T02:39:22.851Z,2.22
2023-04-19T02:41:55.278Z,2.20
2023-04-19T02:44:27.775Z,2.10
2023-04-19T02:46:59.816Z,2.25
2023-04-19T02:49:36.977Z,1.98
2023-04-19T02:52:09.548Z,2.33
2023-04-19T02:54:43.828Z,1.92
2023-04-19T02:57:15.762Z,2.03
2023-04-19T02:59:48.946Z,2.00
2023-04-19T03:02:23.966Z,2.10
2023-04-19T03:04:55.966Z,2.22
2023-04-19T03:07:28.114Z,2.17
2023-04-19T03:10:00.018Z,1.88
2023-04-19T03:12:32.048Z,2.00
2023-04-19T03:15:04.312Z,2.15
2023-04-19T03:17:37.520Z,2.00
2023-04-19T03:20:11.710Z,2.00
2023-04-19T03:22:43.840Z,1.88
2023-04-19T03:25:16.044Z,2.00
2023-04-19T03:27:52.162Z,2.00
2023-04-19T03:30:33.488Z,2.20
2023-04-19T03:33:05.536Z,2.00
2023-04-19T03:35:37.622Z,2.40
2023-04-19T03:38:15.588Z,1.63
2023-04-19T03:40:48.652Z,1.92
2023-04-19T03:43:22.460Z,2.03
2023-04-19T03:45:54.366Z,2.20
2023-04-19T03:48:28.035Z,2.20
2023-04-19T03:51:01.491Z,2.08
2023-04-19T03:53:33.840Z,2.65
2023-04-19T03:56:05.950Z,1.98
2023-04-19T03:58:39.335Z,2.00
2023-04-19T04:01:24.339Z,2.08
2023-04-19T04:03:57.905Z,1.90
2023-04-19T04:06:30.535Z,1.98
2023-04-19T04:09:02.556Z,2.00
2023-04-19T04:11:35.523Z,2.20
2023-04-19T04:14:07.688Z,2.05
2023-04-19T04:16:42.937Z,2.33
2023-04-19T04:19:15.471Z,2.13
2023-04-19T04:21:47.788Z,2.10
2023-04-19T04:24:22.345Z,2.03
2023-04-19T04:27:21.529Z,1.98
2023-04-19T04:29:56.831Z,2.03
2023-04-19T04:32:30.129Z,2.72
2023-04-19T04:35:06.995Z,2.47
2023-04-19T04:37:47.043Z,2.22
2023-04-19T04:40:19.388Z,2.10
2023-04-19T04:42:53.051Z,2.30
2023-04-19T04:45:25.513Z,2.20
2023-04-19T04:47:58.163Z,2.47
2023-04-19T04:50:30.148Z,2.10
2023-04-19T04:53:02.736Z,6.20
2023-04-19T04:55:37.096Z,13.20
2023-04-19T04:58:09.210Z,2.30
2023-04-19T05:00:57.025Z,1.90
2023-04-19T05:03:29.902Z,2.30
2023-04-19T05:06:04.836Z,2.30
2023-04-19T05:08:37.282Z,2.10
2023-04-19T05:11:24.536Z,2.40
2023-04-19T05:13:57.892Z,2.92
2023-04-19T05:16:30.115Z,2.70
2023-04-19T05:19:02.559Z,2.55
2023-04-19T05:21:39.062Z,2.85
2023-04-19T05:24:12.991Z,2.75
2023-04-19T05:26:45.695Z,2.63
2023-04-19T05:29:17.630Z,2.25
2023-04-19T05:31:55.495Z,2.65
2023-04-19T05:34:47.708Z,2.45
2023-04-19T05:37:21.034Z,2.63
2023-04-19T05:39:53.070Z,2.63
2023-04-19T05:42:25.053Z,2.50
2023-04-19T05:44:56.982Z,2.80
2023-04-19T05:47:28.867Z,2.70
2023-04-19T05:50:20.474Z,2.67
2023-04-19T05:53:18.433Z,2.58
2023-04-19T05:55:52.118Z,3.10
2023-04-19T05:58:24.515Z,2.60
2023-04-19T06:00:56.514Z,2.78
2023-04-19T06:03:31.424Z,2.78
2023-04-19T06:06:05.416Z,2.50
2023-04-19T06:08:37.407Z,2.38
2023-04-19T06:11:20.183Z,2.40
2023-04-19T06:13:58.882Z,2.72
2023-04-19T06:16:31.035Z,2.70
2023-04-19T06:19:03.622Z,7.32
2023-04-19T06:21:35.885Z,3.50
2023-04-19T06:24:07.989Z,3.78
2023-04-19T06:26:39.909Z,2.33
2023-04-19T06:29:11.817Z,2.30
2023-04-19T06:31:43.985Z,3.13
2023-04-19T06:34:16.793Z,3.42
2023-04-19T06:36:49.035Z,2.70
2023-04-19T06:39:20.985Z,2.85
2023-04-19T06:41:54.877Z,2.28
2023-04-19T06:44:28.069Z,1.77
2023-04-19T06:46:59.900Z,2.38
2023-04-19T06:49:31.776Z,1.70
2023-04-19T06:52:03.680Z,1.20
2023-04-19T06:54:35.782Z,1.13
2023-04-19T06:57:07.713Z,1.33
2023-04-19T06:59:39.994Z,1.35
2023-04-19T07:02:11.998Z,1.27
2023-04-19T07:04:44.061Z,1.23
2023-04-19T07:07:16.728Z,1.20
2023-04-19T07:09:48.608Z,1.30
2023-04-19T07:12:20.463Z,1.40
2023-04-19T07:14:56.424Z,1.40
2023-04-19T07:17:28.415Z,1.50
2023-04-19T07:20:00.296Z,1.35
2023-04-19T07:22:33.192Z,1.25
2023-04-19T07:25:05.364Z,1.58
2023-04-19T07:27:37.215Z,1.27
2023-04-19T07:30:09.571Z,1.40
2023-04-19T07:32:41.793Z,1.40
2023-04-19T07:35:13.783Z,1.52
2023-04-19T07:37:45.724Z,1.20
2023-04-19T07:40:17.648Z,1.48
2023-04-19T07:42:49.570Z,1.30
2023-04-19T07:45:21.464Z,1.52
2023-04-19T07:47:53.466Z,1.50
2023-04-19T07:50:29.186Z,1.48
2023-04-19T07:53:01.096Z,1.00
2023-04-19T07:55:33.034Z,1.13
2023-04-19T07:58:04.864Z,1.50
2023-04-19T08:00:37.918Z,1.20
2023-04-19T08:03:10.198Z,1.48
2023-04-19T08:05:42.326Z,1.58
2023-04-19T08:08:14.187Z,1.48
2023-04-19T08:10:46.165Z,1.40
2023-04-19T08:13:18.183Z,1.30
2023-04-19T08:18:25.118Z,1.30
2023-04-19T08:20:57.018Z,1.73
2023-04-19T08:23:34.956Z,1.88
2023-04-19T08:26:13.438Z,1.50
2023-04-19T08:28:45.531Z,1.50
2023-04-19T08:31:17.381Z,1.77
2023-04-19T08:33:49.301Z,1.30
2023-04-19T08:36:32.537Z,1.58
2023-04-19T08:39:15.043Z,1.80
2023-04-19T08:42:02.876Z,2.20
2023-04-19T08:44:45.059Z,1.90
2023-04-19T08:47:32.191Z,2.20
2023-04-19T08:50:17.406Z,2.00
2023-04-19T08:53:02.988Z,2.33
2023-04-19T08:56:06.795Z,2.30
2023-04-19T08:59:00.358Z,2.33
2023-04-19T09:01:36.052Z,2.03
2023-04-19T09:06:43.737Z,4.78
2023-04-19T09:09:34.038Z,2.30
2023-04-19T09:12:19.324Z,2.42
2023-04-19T09:15:01.072Z,3.03
2023-04-19T09:17:35.568Z,2.80
2023-04-19T09:20:08.438Z,2.63
2023-04-19T09:22:40.540Z,2.35
2023-04-19T09:25:43.800Z,2.67
2023-04-19T09:28:17.726Z,3.03
2023-04-19T09:31:00.664Z,2.97
2023-04-19T09:33:44.607Z,3.13
2023-04-19T09:36:32.028Z,3.67
2023-04-19T09:39:03.990Z,3.00
2023-04-19T09:41:39.543Z,3.38
2023-04-19T09:46:53.490Z,3.38
2023-04-19T09:49:41.733Z,3.22
2023-04-19T09:52:18.439Z,3.08
2023-04-19T09:54:53.730Z,3.15
2023-04-19T09:57:26.431Z,3.50
2023-04-19T10:02:58.436Z,3.50
2023-04-19T10:05:31.726Z,3.20
2023-04-19T10:08:04.890Z,3.88
2023-04-19T10:10:42.091Z,4.25
2023-04-19T10:13:21.321Z,4.30
2023-04-19T10:16:01.762Z,4.10
2023-04-19T10:18:43.820Z,4.35
2023-04-19T10:21:15.940Z,4.78
2023-04-19T10:23:48.561Z,4.68
2023-04-19T10:26:20.470Z,4.75
2023-04-19T10:28:55.764Z,4.70
2023-04-19T10:31:27.809Z,4.78
2023-04-19T10:33:59.871Z,5.55
2023-04-19T10:36:32.562Z,5.50
2023-04-19T10:39:04.934Z,5.40
2023-04-19T10:41:58.072Z,4.95
2023-04-19T10:44:29.933Z,4.55
2023-04-19T10:47:01.969Z,4.80
2023-04-19T10:49:46.230Z,5.03
2023-04-19T10:52:31.311Z,4.90
2023-04-19T10:55:05.731Z,4.72
2023-04-19T10:58:02.913Z,4.68
2023-04-19T11:00:36.249Z,5.18
2023-04-19T11:03:51.892Z,5.20
2023-04-19T11:06:27.237Z,4.82
2023-04-19T11:09:00.693Z,5.72
2023-04-19T11:11:36.401Z,4.55
2023-04-19T11:14:08.981Z,4.25
2023-04-19T11:16:45.843Z,3.85
2023-04-19T11:19:19.502Z,5.07
2023-04-19T11:21:51.569Z,5.00
2023-04-19T11:24:23.431Z,5.40
2023-04-19T11:26:57.727Z,4.65
2023-04-19T11:29:29.654Z,4.05
2023-04-19T11:32:01.688Z,4.90
2023-04-19T11:34:39.031Z,5.10
2023-04-19T11:37:11.641Z,4.97
2023-04-19T11:39:50.155Z,4.78
2023-04-19T11:42:22.108Z,5.07
2023-04-19T11:44:56.464Z,5.15
2023-04-19T11:47:28.566Z,5.70
2023-04-19T11:50:35.602Z,5.03
2023-04-19T11:53:13.325Z,5.63
2023-04-19T11:55:49.212Z,5.80
2023-04-19T11:58:29.675Z,5.72
2023-04-19T12:01:09.890Z,5.65
2023-04-19T12:03:44.978Z,4.80
2023-04-19T12:06:25.849Z,5.20
2023-04-19T12:08:58.615Z,5.38
2023-04-19T12:11:45.404Z,4.93
2023-04-19T12:14:22.963Z,4.88
2023-04-19T12:17:15.802Z,5.35
2023-04-19T12:19:48.083Z,8.23
2023-04-19T12:22:20.973Z,5.30
2023-04-19T12:24:54.027Z,4.95
2023-04-19T12:27:26.059Z,4.20
2023-04-19T12:29:57.973Z,3.92
2023-04-19T12:32:29.902Z,4.38
2023-04-19T12:35:01.942Z,5.22
2023-04-19T12:37:33.857Z,4.43
2023-04-19T12:40:07.629Z,4.18
2023-04-19T12:42:39.550Z,3.60
2023-04-19T12:45:12.780Z,3.55
2023-04-19T12:47:47.012Z,3.58
2023-04-19T12:50:18.947Z,4.00
2023-04-19T12:52:51.968Z,3.25
2023-04-19T12:55:23.903Z,4.53
2023-04-19T12:57:56.083Z,3.63
2023-04-19T13:00:28.114Z,3.00
2023-04-19T13:03:00.219Z,3.50
2023-04-19T13:05:32.242Z,3.47
2023-04-19T13:08:04.360Z,3.70
2023-04-19T13:10:36.302Z,3.65
2023-04-19T13:14:01.252Z,3.13
2023-04-19T13:16:35.927Z,3.92
2023-04-19T13:19:07.875Z,3.40
2023-04-19T13:21:39.764Z,3.85
2023-04-19T13:24:11.703Z,4.32
2023-04-19T13:26:46.174Z,4.95
2023-04-19T13:29:18.057Z,4.88
2023-04-19T13:31:50.249Z,4.32
2023-04-19T13:34:22.131Z,5.03
2023-04-19T13:36:54.063Z,5.53
2023-04-19T13:39:25.896Z,5.32
2023-04-19T13:41:57.820Z,5.70
2023-04-19T13:44:30.022Z,5.97
2023-04-19T13:47:02.013Z,6.03
2023-04-19T13:49:33.915Z,5.30
2023-04-19T13:52:06.458Z,5.45
2023-04-19T13:54:38.371Z,4.90
2023-04-19T13:57:10.236Z,5.28
2023-04-19T13:59:42.190Z,5.97
2023-04-19T14:02:14.076Z,5.97
2023-04-19T14:04:46.229Z,5.93
2023-04-19T14:07:18.259Z,5.22
2023-04-19T14:09:50.247Z,5.30
2023-04-19T14:12:22.200Z,6.03
2023-04-19T14:14:54.184Z,5.63
2023-04-19T14:17:26.423Z,5.13
2023-04-19T14:19:58.407Z,5.13
2023-04-19T14:22:32.086Z,5.55
2023-04-19T14:25:04.212Z,6.03
2023-04-19T14:27:36.128Z,5.00
2023-04-19T14:30:08.570Z,5.03
2023-04-19T14:32:40.641Z,5.32
2023-04-19T14:35:12.787Z,5.13
2023-04-19T14:37:44.686Z,5.15
2023-04-19T14:40:18.062Z,5.03
2023-04-19T14:42:50.015Z,4.68
2023-04-19T14:45:22.065Z,4.78
2023-04-19T14:47:54.121Z,4.38
2023-04-19T14:50:26.276Z,4.65
2023-04-19T14:52:58.437Z,5.32
2023-04-19T14:55:30.467Z,4.90
2023-04-19T14:58:02.479Z,4.15
2023-04-19T15:00:34.747Z,4.40
2023-04-19T15:03:06.857Z,3.70
2023-04-19T15:05:38.904Z,3.63
2023-04-19T15:08:23.384Z,3.70
2023-04-19T15:11:01.354Z,3.20
2023-04-19T15:13:33.915Z,3.55
2023-04-19T15:16:07.712Z,3.70
2023-04-19T15:18:39.701Z,3.80
2023-04-19T15:21:11.669Z,3.38
2023-04-19T15:23:43.581Z,4.10
2023-04-19T15:26:16.427Z,3.80
2023-04-19T15:28:48.284Z,3.20
2023-04-19T15:31:21.119Z,4.15
2023-04-19T15:33:53.543Z,4.00
2023-04-19T15:36:27.313Z,3.05
2023-04-19T15:39:00.572Z,3.80
2023-04-19T15:41:32.520Z,3.60
2023-04-19T15:44:04.382Z,3.65
2023-04-19T15:46:36.294Z,3.20
2023-04-19T15:49:08.433Z,3.63
2023-04-19T15:51:40.632Z,3.45
2023-04-19T15:54:14.702Z,3.50
2023-04-19T15:56:46.825Z,3.47
2023-04-19T15:59:18.924Z,3.80
2023-04-19T16:01:50.931Z,3.92
2023-04-19T16:04:23.097Z,3.80
2023-04-19T16:06:55.686Z,3.92
2023-04-19T16:09:27.541Z,3.78
2023-04-19T16:11:59.382Z,3.70
2023-04-19T16:14:31.264Z,3.00
2023-04-19T16:17:03.116Z,4.32
2023-04-19T16:19:34.993Z,5.07
2023-04-19T16:22:07.379Z,5.32
2023-04-19T16:24:39.490Z,5.43
2023-04-19T16:27:11.552Z,5.65
2023-04-19T16:29:43.542Z,6.60
2023-04-19T16:32:15.481Z,6.63
2023-04-19T16:34:47.517Z,8.52
2023-04-19T16:37:19.685Z,7.00
2023-04-19T16:39:51.608Z,7.18
2023-04-19T16:42:23.513Z,7.45
2023-04-19T16:44:55.489Z,7.95
2023-04-19T16:47:27.441Z,11.68
2023-04-19T16:50:00.364Z,9.20
2023-04-19T16:52:34.271Z,9.02
2023-04-19T16:55:07.005Z,7.97
2023-04-19T16:57:38.937Z,8.27
2023-04-19T17:00:12.022Z,7.68
2023-04-19T17:02:43.993Z,8.20
2023-04-19T17:05:16.314Z,8.32
2023-04-19T17:07:48.299Z,8.50
2023-04-19T17:10:20.425Z,9.85
2023-04-19T17:12:54.472Z,10.25
2023-04-19T17:15:26.762Z,10.90
2023-04-19T17:17:58.726Z,10.63
2023-04-19T17:20:30.758Z,22.17
2023-04-19T17:23:02.668Z,8.77
2023-04-19T17:25:34.549Z,9.48
2023-04-19T17:28:06.387Z,9.60
2023-04-19T17:30:38.264Z,9.95
2023-04-19T17:33:10.213Z,8.52
2023-04-19T17:35:42.119Z,9.52
2023-04-19T17:38:13.969Z,8.80
2023-04-19T17:40:45.936Z,10.07
2023-04-19T17:43:17.928Z,11.02
2023-04-19T17:45:49.891Z,10.82
2023-04-19T17:48:21.754Z,11.82
2023-04-19T17:50:54.253Z,11.93
2023-04-19T17:53:26.431Z,9.93
2023-04-19T17:55:58.795Z,8.02
2023-04-19T17:58:31.128Z,8.77
2023-04-19T18:01:03.607Z,8.90
2023-04-19T18:03:35.812Z,9.25
2023-04-19T18:06:12.474Z,8.52
2023-04-19T18:08:45.972Z,9.90
2023-04-19T18:11:18.298Z,10.00
2023-04-19T18:13:50.272Z,13.73
2023-04-19T18:16:22.282Z,16.00
2023-04-19T18:18:54.280Z,9.25
2023-04-19T18:21:26.500Z,9.90
2023-04-19T18:23:58.448Z,9.23
2023-04-19T18:26:38.261Z,9.70
2023-04-19T18:29:10.771Z,12.73
2023-04-19T18:31:42.994Z,9.98
2023-04-19T18:34:15.640Z,10.15
2023-04-19T18:36:47.853Z,9.88
2023-04-19T18:39:19.773Z,10.43
2023-04-19T18:41:51.739Z,10.63
2023-04-19T18:44:43.956Z,10.88
2023-04-19T18:47:15.974Z,11.88
2023-04-19T18:50:02.849Z,16.05
2023-04-19T18:52:37.355Z,10.55
2023-04-19T18:55:11.549Z,10.23
2023-04-19T18:57:43.468Z,17.95
2023-04-19T19:00:16.342Z,11.35
2023-04-19T19:02:48.468Z,11.32
2023-04-19T19:05:20.769Z,10.43
2023-04-19T19:07:54.414Z,10.35
2023-04-19T19:10:54.203Z,11.93
2023-04-19T19:13:21.788Z,10.27
2023-04-19T19:15:54.073Z,11.35
2023-04-19T19:18:28.118Z,11.85
2023-04-19T19:21:00.546Z,11.07
2023-04-19T19:23:42.166Z,10.40
2023-04-19T19:26:16.833Z,12.60
2023-04-19T19:28:50.780Z,24.38
2023-04-19T19:31:25.070Z,14.32
2023-04-19T19:34:18.171Z,12.27
2023-04-19T19:36:52.055Z,11.07
2023-04-19T19:39:30.543Z,45.33
2023-04-19T19:42:06.320Z,70.65
2023-04-19T19:44:39.592Z,10.45
2023-04-19T19:47:18.349Z,10.68
2023-04-19T19:50:33.696Z,9.82
2023-04-19T19:52:44.428Z,9.75
2023-04-19T19:55:19.267Z,10.00
2023-04-19T20:03:06.281Z,9.93
2023-04-19T20:05:39.672Z,9.40
2023-04-19T20:08:15.305Z,9.13
2023-04-19T20:10:47.726Z,9.15
2023-04-19T20:13:19.745Z,9.48
2023-04-19T20:15:54.851Z,9.55
2023-04-19T20:18:28.499Z,8.73
2023-04-19T20:21:01.322Z,9.48
2023-04-19T20:23:34.706Z,8.55
2023-04-19T20:26:07.424Z,8.30
2023-04-19T20:28:39.926Z,9.88
2023-04-19T20:31:12.640Z,9.63
2023-04-19T20:33:46.549Z,8.98
2023-04-19T20:36:20.929Z,8.23
2023-04-19T20:38:55.396Z,8.70
2023-04-19T20:41:29.265Z,11.43
2023-04-19T20:44:02.526Z,9.25
2023-04-19T20:46:36.736Z,8.80
2023-04-19T20:49:10.553Z,8.70
2023-04-19T20:51:44.003Z,8.45
2023-04-19T20:54:16.279Z,8.35
2023-04-19T20:56:48.567Z,8.27
2023-04-19T20:59:21.024Z,8.70
2023-04-19T21:01:54.677Z,7.53
2023-04-19T21:04:29.714Z,8.02
2023-04-19T21:07:02.155Z,9.90
2023-04-19T21:09:36.951Z,8.02
2023-04-19T21:12:11.587Z,7.57
2023-04-19T21:14:47.801Z,8.55
2023-04-19T21:17:22.983Z,7.82
2023-04-19T21:19:55.678Z,8.38
2023-04-19T21:22:30.877Z,8.40
2023-04-19T21:25:03.829Z,10.23
2023-04-19T21:27:37.278Z,7.88
2023-04-19T21:30:10.729Z,28.98
2023-04-19T21:32:42.851Z,8.55
2023-04-19T21:35:15.185Z,8.93
2023-04-19T21:37:47.111Z,8.65
2023-04-19T21:40:19.161Z,8.65
2023-04-19T21:42:51.106Z,8.10
2023-04-19T21:45:23.041Z,8.13
2023-04-19T21:47:54.988Z,7.85
2023-04-19T21:50:26.962Z,7.68
2023-04-19T21:52:58.939Z,7.45
2023-04-19T21:55:32.446Z,8.27
2023-04-19T21:58:04.374Z,8.55
2023-04-19T22:00:36.422Z,7.93
2023-04-19T22:03:08.513Z,7.93
2023-04-19T22:05:41.031Z,8.13
2023-04-19T22:08:13.156Z,7.50
2023-04-19T22:10:46.348Z,6.30
2023-04-19T22:13:18.462Z,6.78
2023-04-19T22:15:50.834Z,6.43
2023-04-19T22:18:22.748Z,6.97
2023-04-19T22:20:55.675Z,6.90
2023-04-19T22:23:27.833Z,7.68
2023-04-19T22:26:00.261Z,7.13
2023-04-19T22:28:33.792Z,7.30
2023-04-19T22:31:06.110Z,7.75
2023-04-19T22:33:37.995Z,7.57
2023-04-19T22:36:10.069Z,7.07
2023-04-19T22:38:42.104Z,7.50
2023-04-19T22:41:13.944Z,6.95
2023-04-19T22:43:45.909Z,7.10
2023-04-19T22:46:17.823Z,7.03
2023-04-19T22:48:49.921Z,7.15
2023-04-19T22:51:22.486Z,7.80
2023-04-19T22:53:54.317Z,6.90
2023-04-19T22:56:26.262Z,7.57
2023-04-19T22:58:58.139Z,7.03
2023-04-19T23:01:30.128Z,7.60
2023-04-19T23:04:02.085Z,7.30
2023-04-19T23:06:34.009Z,7.65
2023-04-19T23:09:06.096Z,9.18
2023-04-19T23:11:39.166Z,7.78
2023-04-19T23:14:11.058Z,8.02
2023-04-19T23:16:42.907Z,7.70
2023-04-19T23:19:16.633Z,7.90
2023-04-19T23:21:52.104Z,7.40
2023-04-19T23:24:24.388Z,7.82
2023-04-19T23:26:56.728Z,7.85
2023-04-19T23:29:28.567Z,7.15
2023-04-19T23:32:01.997Z,7.63
2023-04-19T23:34:33.978Z,7.40
2023-04-19T23:37:05.838Z,6.90
2023-04-19T23:39:38.373Z,7.40
2023-04-19T23:42:10.417Z,7.47
2023-04-19T23:44:43.904Z,7.57
2023-04-19T23:47:15.974Z,7.25
2023-04-19T23:49:48.140Z,7.05
2023-04-19T23:52:22.637Z,7.55
2023-04-19T23:54:54.574Z,7.53
2023-04-19T23:57:26.420Z,6.80
2023-04-19T23:59:58.258Z,7.13
